Decoded Metar for SAWG (RIO GALLEGOS in ARGENTINA) (IATA:RGL) | Meteo·Mobile Aviation Weather
aviador You're here:

SAWG Decoded Metar

RIO GALLEGOS in ARGENTINA
Report Time2019-02-16 02:00:00
UTC Time2019-02-16 02:12:36
Flight Rules vfr VFR
Wind270° at 17 kt
W.Decomp.*RWY 25: 16.8 kt HW 2.4 kt RCW
W.Rank270° ranks 1
Current wind is above 270° avg. (14.0)
Visibility9999 m
Phenomena:N/A
Clouds:N/A
Expected CloudBase > 5,600 ft AGL from Temp-Dew spread
CeilingNone
Temp21°C (ISA +6)
Dew Point07°C (40% RH)
AAT14.2°C
QNH0991 hPa
Density Alt1,660 ft
Elevation62 ft
Report Wrong Elevation
Raw Report
METAR SAWG 160200Z 27017KT CAVOK 21/07 Q0991=

Extra information for SAWG:More info

Metar Taf Metar & Taf Last 4 Metars F.Rules Stats Wind Profile Meteogram Temp Stats Airport Information Weather charts Add Link Nearby VenuesMetar ALERT Operation Metar Decoded Social comments